Aérodrome :
LOGIN :

S'inscrire | Disclaimer

   EN    FR    IT 

 










Légende :    VFR   VFR Marginal   IFR   IFR Intensif   IFR Très Intensif
Visi : 
Plafond : 
>= 8 km
>= 3000ft
5 à 8 km
1000 à 3000 ft
1500m à 5 km
500 à 1000 ft
800 à 1500m
200 à 500 ft
< 800m
< 200 ft
Symboles :   Orages  Brouillard  Fortes neiges  Fortes précipitations  Vent > 20 kt
SIGMETs :   Divers  Orages  Givrage  Turbulence  Onde Orograph.  Cendres Volcan.







- Altitude de l'aérodrome : 1020 ft
- Code IATA : ILZ


LZZI - Žilina

DERNIER METAR :
  • 230630Z 09007KT 4500 BR NSC M16/M18 Q1003

METARs EXPIRÉS :
  • 230600Z 10007KT 4500 BR NSC M15/M17 Q1003
  • 230530Z 09005KT 4500 BR NSC M15/M17 Q1003
  • 230500Z 11007KT 4500 BR NSC M15/M17 Q1004
  • 230430Z 11005KT 4000 BR NSC M15/M17 Q1004
  • 230400Z 09006KT 4000 BR NSC M15/M17 Q1004

TAF TAF LZZI
Valide du 23 à 06h jusqu'au 23 à 15h UTC


230500Z 2306/2315 11006KT 4000 BR NSC
TEMPO 2306/2309 2000 BR FEW012 SCT022
BECMG 2310/2312 8000 SCT020 BKN030
Pas de NOTAMs connus pour ce terrain.



MET'MAP, la Météo Aéronautique d'un coup d'oeil ! - Copyright ORBIFLY Décembre 2007 - Disclaimer

ORBIFLY MET'MAP TEAM :

Programmation & Développement : Alexandra Zaïnal
Conception & Développement : Baudouin d'Aumeries
Co-Programmation & Développement : Marc-Olivier Méhu
Soutien technique & logistique : Manuel Goepfert

Contact : metmap@orbifly.com




SOURCES & CREDITS :

   NOAA